Time;durP1;ratioP1;P1;durP2;ratioP2;P2;SDS_P1;SDS_P2;PMS_P1;PMS_P2;Temp;Humidity;BMP_temperature;BMP_pressure;BME280_temperature;BME280_humidity;BME280_pressure;Samples;Min_cycle;Max_cycle;Signal;HPM_P1;HPM_P2
2023/01/05 00:01:52;;;;;;;19.92;7.42;;;;;;;7.38;88.34;98197.22;1688736;82;25854;-71
2023/01/05 00:04:18;;;;;;;15.90;5.90;;;;;;;7.39;88.28;98200.19;1664265;82;25724;-71
2023/01/05 00:06:44;;;;;;;10.65;4.97;;;;;;;7.38;88.27;98197.22;1686184;82;25434;-71
2023/01/05 00:09:14;;;;;;;10.25;4.45;;;;;;;7.39;88.23;98190.64;1712495;82;25717;-71
2023/01/05 00:23:00;;;;;;;10.23;4.37;;;;;;;7.44;88.26;98176.10;1733076;82;25849;-71
2023/01/05 00:25:32;;;;;;;12.35;5.00;;;;;;;7.43;88.40;98179.13;1685732;82;28455;-71
2023/01/05 00:27:59;;;;;;;10.68;4.28;;;;;;;7.43;88.35;98156.78;1710904;82;25748;-71
2023/01/05 00:30:30;;;;;;;9.75;3.85;;;;;;;7.48;88.17;98157.20;1688763;82;25668;-71
2023/01/05 00:32:57;;;;;;;8.33;3.47;;;;;;;7.49;88.23;98146.56;1686803;82;25729;-70
2023/01/05 00:35:23;;;;;;;11.40;4.87;;;;;;;7.53;88.10;98147.55;1714345;82;25726;-71
2023/01/05 00:37:50;;;;;;;26.77;8.70;;;;;;;7.57;88.04;98152.64;1689529;82;27472;-71
2023/01/05 00:40:20;;;;;;;20.62;7.42;;;;;;;7.60;87.93;98150.66;1689376;82;27080;-71
2023/01/05 00:42:47;;;;;;;9.38;4.08;;;;;;;7.64;87.86;98157.69;1741749;81;25706;-71
2023/01/05 00:45:17;;;;;;;16.90;5.53;;;;;;;7.66;87.78;98152.74;1741864;81;25460;-71
2023/01/05 00:47:44;;;;;;;15.05;4.85;;;;;;;7.71;87.54;98143.64;1715281;82;25701;-71
2023/01/05 00:50:15;;;;;;;12.68;5.47;;;;;;;7.72;87.51;98142.52;1666362;82;27450;-72
2023/01/05 00:52:42;;;;;;;11.25;4.97;;;;;;;7.73;87.43;98129.94;1741151;82;32756;-71
2023/01/05 00:55:09;;;;;;;12.10;5.15;;;;;;;7.74;87.34;98123.36;1714576;82;25468;-71
2023/01/05 00:57:36;;;;;;;11.18;4.67;;;;;;;7.74;87.22;98116.54;1714348;82;25513;-72
2023/01/05 01:00:07;;;;;;;15.70;5.60;;;;;;;7.76;87.05;98127.14;1712796;82;25681;-71
2023/01/05 01:02:33;;;;;;;14.30;5.10;;;;;;;7.79;86.91;98123.80;1742163;82;32860;-71
2023/01/05 01:05:00;;;;;;;10.72;4.55;;;;;;;7.80;86.84;98117.80;1714468;82;25491;-71
2023/01/05 01:07:26;;;;;;;12.65;4.47;;;;;;;7.83;86.75;98121.27;1691169;82;25497;-70
2023/01/05 01:09:52;;;;;;;13.60;5.58;;;;;;;7.87;86.61;98118.98;1666055;82;28093;-70
2023/01/05 01:12:18;;;;;;;10.80;4.78;;;;;;;7.93;86.40;98121.02;1714251;82;25748;-70
2023/01/05 01:14:49;;;;;;;12.98;5.60;;;;;;;7.92;86.35;98111.23;1690403;82;27427;-69
2023/01/05 01:17:16;;;;;;;13.00;5.72;;;;;;;7.93;86.34;98114.20;1690660;82;25654;-69
2023/01/05 01:19:44;;;;;;;13.50;5.45;;;;;;;7.93;86.36;98114.20;1714700;82;25685;-70
2023/01/05 01:22:12;;;;;;;9.30;3.85;;;;;;;7.95;86.24;98114.71;1690741;82;25421;-70
2023/01/05 01:24:38;;;;;;;16.25;5.30;;;;;;;7.98;86.08;98122.28;1714393;82;25468;-69
2023/01/05 01:27:04;;;;;;;9.23;4.58;;;;;;;8.04;86.01;98115.55;1741886;81;27491;-69
2023/01/05 01:29:31;;;;;;;7.12;4.08;;;;;;;8.08;85.93;98115.75;1689409;82;25941;-69
2023/01/05 01:31:58;;;;;;;5.03;2.22;;;;;;;8.13;85.65;98112.91;1690295;82;25468;-69
2023/01/05 01:34:24;;;;;;;6.30;3.00;;;;;;;8.18;85.29;98101.06;1699383;83;25751;-69
2023/01/05 01:36:55;;;;;;;9.10;3.77;;;;;;;8.22;85.31;98091.12;1663992;84;25687;-69
2023/01/05 01:39:21;;;;;;;6.70;3.08;;;;;;;8.27;85.20;98094.28;1689205;84;27546;-69
2023/01/05 01:41:48;;;;;;;9.63;4.37;;;;;;;8.30;85.15;98086.83;1666362;84;25625;-69
2023/01/05 01:44:57;;;;;;;10.58;4.70;;;;;;;8.34;85.19;98078.80;1630542;84;25650;-69
2023/01/05 01:47:41;;;;;;;6.62;3.40;;;;;;;8.37;85.15;98068.07;1644702;84;25614;-68
2023/01/05 01:50:33;;;;;;;9.70;4.15;;;;;;;8.38;85.00;98074.34;1707482;83;25410;-69
2023/01/05 01:53:10;;;;;;;10.40;4.05;;;;;;;8.37;85.00;98063.98;1707959;84;27419;-68
2023/01/05 01:55:38;;;;;;;7.90;3.05;;;;;;;8.38;85.09;98055.23;1688535;84;25790;-69
2023/01/05 01:58:10;;;;;;;9.68;3.80;;;;;;;8.38;85.29;98048.41;1664188;84;25632;-68
2023/01/05 02:00:39;;;;;;;7.30;3.22;;;;;;;8.38;85.44;98058.75;1707907;84;25493;-68
2023/01/05 02:03:06;;;;;;;10.18;4.72;;;;;;;8.38;85.48;98039.64;1689672;84;25490;-68
2023/01/05 02:05:35;;;;;;;5.17;2.83;;;;;;;8.39;85.51;98050.83;1689519;84;27453;-68
2023/01/05 02:08:03;;;;;;;3.95;1.77;;;;;;;8.40;85.60;98051.61;1689902;84;25776;-67
2023/01/05 02:11:06;;;;;;;5.20;2.42;;;;;;;8.39;85.77;98033.08;1666643;84;25719;-68
2023/01/05 02:13:58;;;;;;;11.15;4.67;;;;;;;8.40;85.90;98029.22;1707372;83;25555;-67
2023/01/05 02:16:58;;;;;;;16.07;8.05;;;;;;;8.37;86.32;98020.84;1707338;83;25617;-67
2023/01/05 02:19:48;;;;;;;7.85;3.12;;;;;;;8.36;86.44;98009.69;1688344;84;28027;-67
2023/01/05 02:23:03;;;;;;;8.65;3.17;;;;;;;8.34;86.40;98004.55;1688041;84;25688;-67
2023/01/05 02:25:44;;;;;;;10.90;4.65;;;;;;;8.32;86.47;97994.48;1707534;84;25630;-67
2023/01/05 02:28:30;;;;;;;6.72;2.95;;;;;;;8.31;86.38;97996.16;1707984;84;26016;-68
2023/01/05 02:31:26;;;;;;;6.58;3.20;;;;;;;8.31;86.33;97987.98;1707845;84;25453;-67
2023/01/05 02:34:24;;;;;;;6.35;3.00;;;;;;;8.33;86.09;97993.94;1695721;82;28115;-67
2023/01/05 02:37:05;;;;;;;5.90;3.35;;;;;;;8.37;85.74;97984.80;1712607;82;25838;-66
2023/01/05 02:39:59;;;;;;;5.12;2.58;;;;;;;8.39;85.48;97976.30;1714401;82;25685;-67
2023/01/05 02:42:27;;;;;;;12.47;5.83;;;;;;;8.39;85.00;97979.84;1743728;82;26250;-67
2023/01/05 02:44:53;;;;;;;14.33;7.03;;;;;;;8.46;84.66;97967.08;1690284;82;25497;-67
2023/01/05 02:47:34;;;;;;;9.53;3.72;;;;;;;8.49;84.28;97956.10;1714669;82;27445;-66
2023/01/05 02:50:06;;;;;;;10.63;3.50;;;;;;;8.53;84.03;97961.16;1744084;81;25676;-67
2023/01/05 02:52:37;;;;;;;4.15;1.90;;;;;;;8.56;83.89;97959.74;1710367;82;25806;-66
2023/01/05 02:55:09;;;;;;;9.60;3.83;;;;;;;8.56;83.39;97951.00;1742469;82;26428;-66
2023/01/05 02:57:46;;;;;;;5.42;2.42;;;;;;;8.60;83.23;97963.44;1712969;82;25596;-66
2023/01/05 03:00:18;;;;;;;8.03;3.45;;;;;;;8.62;83.07;97945.64;1711331;82;27665;-67
2023/01/05 03:02:48;;;;;;;9.65;4.00;;;;;;;8.63;83.18;97955.98;1712814;82;25632;-67
2023/01/05 03:05:29;;;;;;;5.40;2.40;;;;;;;8.62;82.89;97953.83;1743849;82;25382;-67
2023/01/05 03:08:05;;;;;;;4.25;2.17;;;;;;;8.64;82.79;97940.64;1711683;82;25642;-67
2023/01/05 03:16:00;;;;;;;12.85;3.98;;;;;;;8.76;82.34;97937.86;1743255;82;25582;-67
2023/01/05 03:18:26;;;;;;;10.70;3.40;;;;;;;8.75;82.27;97939.77;1742832;82;25448;-67
2023/01/05 03:20:54;;;;;;;9.03;3.22;;;;;;;8.77;82.08;97948.47;1714202;82;25585;-67
2023/01/05 03:37:59;;;;;;;5.45;2.70;;;;;;;8.77;82.00;97929.90;1733128;82;25562;-68
2023/01/05 03:40:29;;;;;;;4.50;2.55;;;;;;;8.78;81.89;97932.89;1733011;82;29516;-67
2023/01/05 03:42:56;;;;;;;4.78;2.37;;;;;;;8.82;81.95;97932.48;1712339;82;25706;-67
2023/01/05 03:45:37;;;;;;;11.45;3.50;;;;;;;8.82;81.68;97932.48;1687113;82;25788;-67
2023/01/05 03:48:05;;;;;;;4.62;1.98;;;;;;;8.83;81.79;97922.34;1711216;82;32471;-67
2023/01/05 03:50:31;;;;;;;8.40;3.37;;;;;;;8.83;81.72;97925.07;1712717;82;25422;-67
2023/01/05 03:52:58;;;;;;;6.25;3.10;;;;;;;8.83;81.80;97918.24;1710895;82;27430;-67
2023/01/05 03:55:24;;;;;;;3.62;2.20;;;;;;;8.83;81.76;97907.31;1712439;82;25633;-67
2023/01/05 03:57:50;;;;;;;5.53;2.05;;;;;;;8.84;81.66;97904.84;1712132;82;25707;-67
2023/01/05 04:00:17;;;;;;;6.05;2.70;;;;;;;8.85;81.71;97925.56;1712146;82;25723;-67
2023/01/05 04:02:44;;;;;;;6.22;2.90;;;;;;;8.87;81.61;97921.38;1644437;82;25692;-67
2023/01/05 04:05:10;;;;;;;5.80;2.85;;;;;;;8.88;81.49;97911.27;1712039;82;28651;-67
2023/01/05 04:07:36;;;;;;;11.05;5.08;;;;;;;8.90;81.49;97923.47;1687431;82;25930;-67
2023/01/05 04:10:04;;;;;;;7.95;3.67;;;;;;;8.89;81.67;97922.42;1733080;82;25590;-67
2023/01/05 04:12:30;;;;;;;8.48;4.00;;;;;;;8.88;82.09;97927.66;1711268;82;25686;-67
2023/01/05 04:14:57;;;;;;;5.83;3.05;;;;;;;8.84;82.59;97937.63;1688564;82;25495;-67
2023/01/05 04:17:23;;;;;;;6.20;3.50;;;;;;;8.78;83.08;97926.84;1711173;82;27611;-67
2023/01/05 04:19:50;;;;;;;6.45;2.90;;;;;;;8.76;83.57;97916.81;1711693;82;25600;-67
2023/01/05 04:22:16;;;;;;;6.75;3.22;;;;;;;8.72;84.00;97905.48;1686634;82;25838;-67
2023/01/05 04:24:42;;;;;;;5.08;2.58;;;;;;;8.68;84.13;97912.14;1688681;82;25757;-67
2023/01/05 04:27:09;;;;;;;2.35;1.62;;;;;;;8.65;84.54;97911.41;1712694;82;25432;-67
2023/01/05 04:29:35;;;;;;;2.00;1.50;;;;;;;8.63;84.65;97923.20;1664310;82;27456;-67
2023/01/05 04:32:01;;;;;;;4.15;2.35;;;;;;;8.59;84.95;97907.22;1711890;82;26159;-67
2023/01/05 04:34:27;;;;;;;5.15;1.92;;;;;;;8.61;84.81;97907.72;1659017;84;25719;-67
2023/01/05 04:36:53;;;;;;;4.40;2.22;;;;;;;8.59;85.09;97912.68;1664373;84;25637;-67
2023/01/05 04:39:19;;;;;;;4.80;2.47;;;;;;;8.60;84.93;97917.83;1643407;84;25620;-67
2023/01/05 04:41:47;;;;;;;3.58;2.00;;;;;;;8.59;85.09;97909.95;1707555;84;27482;-67
2023/01/05 04:44:14;;;;;;;2.65;1.70;;;;;;;8.59;85.27;97908.03;1689592;84;25652;-67
2023/01/05 04:46:40;;;;;;;3.70;1.82;;;;;;;8.62;85.26;97914.23;1666127;84;25778;-67
2023/01/05 04:49:08;;;;;;;4.65;2.20;;;;;;;8.63;85.27;97913.09;1666288;84;27497;-67
2023/01/05 04:51:34;;;;;;;3.77;1.98;;;;;;;8.64;85.29;97907.86;1664266;84;25415;-67
2023/01/05 04:54:00;;;;;;;6.20;2.40;;;;;;;8.66;85.24;97908.36;1664976;84;27415;-67
2023/01/05 04:56:27;;;;;;;5.87;2.20;;;;;;;8.68;85.27;97886.19;1689377;84;25994;-68
2023/01/05 04:58:53;;;;;;;4.45;1.70;;;;;;;8.65;85.50;97901.30;1666462;84;25616;-68
2023/01/05 05:01:19;;;;;;;5.90;3.37;;;;;;;8.68;85.30;97888.92;1688272;84;25445;-68
2023/01/05 05:03:46;;;;;;;4.15;1.98;;;;;;;8.69;85.35;97888.37;1689353;84;25702;-68
2023/01/05 05:06:12;;;;;;;6.03;2.80;;;;;;;8.67;85.35;97876.39;1707526;84;27091;-67
2023/01/05 05:08:38;;;;;;;3.25;1.90;;;;;;;8.67;85.42;97881.86;1688338;84;25639;-67
2023/01/05 05:11:05;;;;;;;8.63;3.40;;;;;;;8.69;85.38;97892.47;1689630;84;25701;-67
2023/01/05 05:13:31;;;;;;;4.92;2.62;;;;;;;8.70;85.34;97892.14;1665050;84;25495;-67
2023/01/05 05:15:57;;;;;;;5.12;2.98;;;;;;;8.71;85.18;97885.55;1707550;84;25579;-67
2023/01/05 05:18:24;;;;;;;5.37;2.72;;;;;;;8.72;85.15;97882.27;1644014;84;27519;-67
2023/01/05 05:20:52;;;;;;;2.05;1.17;;;;;;;8.71;85.09;97876.54;1663979;84;25680;-67
2023/01/05 05:23:20;;;;;;;8.03;2.50;;;;;;;8.71;85.46;97869.16;1664457;84;25760;-68
2023/01/05 05:25:51;;;;;;;12.58;4.83;;;;;;;8.69;85.76;97859.11;1665412;84;25805;-67
2023/01/05 05:28:18;;;;;;;8.08;3.45;;;;;;;8.68;85.95;97857.51;1630643;84;25683;-67
2023/01/05 05:30:47;;;;;;;4.37;2.37;;;;;;;8.64;85.95;97853.82;1644087;84;27317;-67
2023/01/05 05:33:13;;;;;;;5.67;2.95;;;;;;;8.65;85.77;97860.88;1644298;84;27180;-68
2023/01/05 05:35:39;;;;;;;3.12;1.65;;;;;;;8.64;85.69;97864.16;1705500;82;25686;-68
2023/01/05 05:38:05;;;;;;;3.22;1.90;;;;;;;8.62;86.01;97860.97;1712860;82;25607;-67
2023/01/05 05:40:32;;;;;;;3.75;2.65;;;;;;;8.60;86.22;97867.30;1714317;82;25623;-68
2023/01/05 05:42:58;;;;;;;3.45;2.37;;;;;;;8.58;86.32;97861.34;1690591;82;28195;-68
2023/01/05 05:45:24;;;;;;;2.55;1.95;;;;;;;8.56;86.23;97858.15;1689373;82;25819;-68
2023/01/05 05:47:51;;;;;;;3.55;1.37;;;;;;;8.55;86.29;97866.08;1714118;82;25429;-68
2023/01/05 05:50:17;;;;;;;2.30;1.77;;;;;;;8.53;86.41;97858.17;1690579;82;25605;-67
2023/01/05 05:52:44;;;;;;;3.47;2.37;;;;;;;8.53;86.22;97869.68;1714173;82;25662;-67
2023/01/05 05:55:10;;;;;;;3.60;2.20;;;;;;;8.56;86.02;97876.45;1690591;82;27486;-67
2023/01/05 05:57:36;;;;;;;4.67;2.20;;;;;;;8.55;86.24;97876.22;1713838;82;25718;-68
2023/01/05 06:00:05;;;;;;;4.08;2.47;;;;;;;8.55;86.36;97899.43;1714061;82;25627;-69
2023/01/05 06:02:31;;;;;;;4.00;2.02;;;;;;;8.50;87.20;97904.45;1743543;81;25457;-68
2023/01/05 06:04:57;;;;;;;3.95;2.10;;;;;;;8.48;87.13;97891.67;1690178;82;25683;-69
2023/01/05 06:07:24;;;;;;;4.55;2.20;;;;;;;8.46;87.52;97901.55;1690392;82;28697;-68
2023/01/05 06:09:50;;;;;;;3.98;2.42;;;;;;;8.44;87.41;97899.71;1690539;82;25667;-68
2023/01/05 06:12:16;;;;;;;4.75;2.45;;;;;;;8.42;87.37;97893.75;1714177;82;25733;-68
2023/01/05 06:14:42;;;;;;;4.47;1.77;;;;;;;8.42;87.05;97891.02;1713101;82;25615;-68
2023/01/05 06:17:09;;;;;;;3.30;2.27;;;;;;;8.39;87.08;97892.47;1689630;82;25470;-68
2023/01/05 06:19:35;;;;;;;2.95;2.30;;;;;;;8.41;86.81;97888.06;1714047;82;27508;-69
2023/01/05 06:22:01;;;;;;;3.15;2.12;;;;;;;8.41;86.86;97886.11;1687971;82;25443;-68
2023/01/05 06:24:27;;;;;;;3.75;2.67;;;;;;;8.41;86.71;97888.84;1690626;82;25647;-69
2023/01/05 06:26:54;;;;;;;4.20;2.35;;;;;;;8.42;86.57;97881.47;1690229;82;25682;-68
2023/01/05 06:29:20;;;;;;;4.65;2.45;;;;;;;8.44;86.33;97878.42;1666266;82;25691;-68
2023/01/05 06:31:46;;;;;;;5.33;3.00;;;;;;;8.45;86.29;97880.83;1712873;82;27409;-68
2023/01/05 06:34:13;;;;;;;5.67;2.60;;;;;;;8.46;86.20;97885.73;1713946;82;26102;-68
2023/01/05 06:36:39;;;;;;;4.55;2.37;;;;;;;8.44;86.12;97879.23;1636430;83;25640;-68
2023/01/05 06:39:05;;;;;;;6.58;3.25;;;;;;;8.43;85.93;97874.87;1694970;83;25656;-67
2023/01/05 06:41:34;;;;;;;7.47;3.50;;;;;;;8.45;85.76;97880.83;1670465;83;25679;-67
2023/01/05 06:44:00;;;;;;;5.53;3.20;;;;;;;8.44;85.38;97877.87;1713099;82;25824;-67
2023/01/05 06:46:26;;;;;;;7.92;4.20;;;;;;;8.45;84.96;97875.92;1668901;83;25645;-67
2023/01/05 06:48:53;;;;;;;6.47;3.77;;;;;;;8.45;85.08;97875.92;1695067;83;25527;-67
2023/01/05 06:51:19;;;;;;;8.68;3.47;;;;;;;8.43;84.92;97876.82;1695018;83;25479;-67
2023/01/05 06:53:45;;;;;;;7.55;3.83;;;;;;;8.40;85.09;97890.53;1670745;83;25550;-68
2023/01/05 06:56:11;;;;;;;11.18;4.60;;;;;;;8.40;85.06;97900.90;1694822;83;28201;-67
2023/01/05 06:58:38;;;;;;;10.35;4.55;;;;;;;8.38;85.63;97911.90;1669007;83;25628;-68
2023/01/05 07:01:04;;;;;;;6.28;3.15;;;;;;;8.33;86.43;97917.50;1713185;83;25433;-67
2023/01/05 07:03:31;;;;;;;7.45;3.00;;;;;;;8.26;87.17;97926.95;1648700;83;25653;-67
2023/01/05 07:05:58;;;;;;;6.97;3.35;;;;;;;8.20;88.10;97920.61;1694986;83;25762;-67
2023/01/05 07:08:24;;;;;;;9.30;3.65;;;;;;;8.16;88.20;97936.25;1649070;83;27247;-67
2023/01/05 07:10:59;;;;;;;7.15;2.92;;;;;;;8.14;88.30;97934.38;1694579;83;26588;-67
2023/01/05 07:13:32;;;;;;;6.53;2.42;;;;;;;8.10;88.83;97947.05;1693695;83;25495;-68
2023/01/05 07:15:58;;;;;;;6.05;2.02;;;;;;;8.07;88.81;97959.15;1649082;83;25549;-67
2023/01/05 07:18:25;;;;;;;3.25;1.60;;;;;;;8.03;89.01;97967.15;1694079;83;25699;-67
2023/01/05 07:20:51;;;;;;;7.33;2.00;;;;;;;8.01;89.00;98017.94;1671405;83;27527;-63
2023/01/05 07:23:19;;;;;;;6.00;2.40;;;;;;;7.98;88.98;98017.23;1690945;83;26303;-67
2023/01/05 07:25:45;;;;;;;5.62;2.30;;;;;;;7.92;88.94;98032.12;1694656;83;25737;-67
2023/01/05 07:28:11;;;;;;;2.83;1.40;;;;;;;7.84;89.16;98021.94;1694847;83;25693;-67
2023/01/05 07:30:38;;;;;;;2.62;1.35;;;;;;;7.79;89.44;98039.23;1666229;83;25444;-67
2023/01/05 07:33:04;;;;;;;2.52;1.20;;;;;;;7.68;90.09;98056.41;1694577;83;27627;-67
2023/01/05 07:35:30;;;;;;;1.98;1.37;;;;;;;7.64;89.90;98068.51;1692561;84;25673;-67
2023/01/05 07:37:56;;;;;;;6.75;2.42;;;;;;;7.59;90.29;98065.89;1683518;84;25480;-67
2023/01/05 07:40:23;;;;;;;4.30;3.05;;;;;;;7.55;91.25;98079.08;1665518;84;26814;-67
2023/01/05 07:42:51;;;;;;;6.10;2.00;;;;;;;7.55;91.11;98091.35;1665382;84;25624;-67
2023/01/05 07:45:18;;;;;;;6.25;2.25;;;;;;;7.48;91.20;98049.50;1689596;84;27301;-66
2023/01/05 07:47:44;;;;;;;4.47;2.00;;;;;;;7.40;91.14;98039.59;1643897;84;26975;-67
2023/01/05 07:50:11;;;;;;;3.42;1.80;;;;;;;7.38;90.88;98041.84;1664014;84;25529;-68
2023/01/05 07:52:38;;;;;;;3.55;1.60;;;;;;;7.33;90.89;98050.12;1665366;84;25611;-67
2023/01/05 07:55:06;;;;;;;3.80;1.42;;;;;;;7.27;91.16;98054.89;1707836;84;25642;-68
2023/01/05 07:57:33;;;;;;;1.65;1.10;;;;;;;7.25;91.29;98030.39;1707897;84;28313;-67
2023/01/05 07:59:59;;;;;;;4.95;1.32;;;;;;;7.17;91.21;98017.52;1707416;84;25684;-68
2023/01/05 08:02:26;;;;;;;2.55;0.70;;;;;;;7.13;91.23;98036.38;1707328;84;25750;-67
2023/01/05 08:04:53;;;;;;;0.80;0.53;;;;;;;7.07;91.16;98038.42;1688140;84;26621;-68
2023/01/05 08:07:19;;;;;;;1.05;0.72;;;;;;;7.04;91.09;98019.95;1689369;84;25432;-68
2023/01/05 08:12:30;;;;;;;2.35;1.27;;;;;;;6.97;91.08;98002.66;1707197;84;25429;-68
2023/01/05 08:14:57;;;;;;;3.95;1.00;;;;;;;6.95;91.10;97998.64;1666216;84;25618;-68
2023/01/05 08:17:23;;;;;;;1.37;0.82;;;;;;;6.92;91.20;97997.34;1661710;84;25626;-68
2023/01/05 08:19:50;;;;;;;5.10;1.72;;;;;;;6.91;91.29;98002.55;1689532;83;25715;-68
2023/01/05 08:22:16;;;;;;;2.67;1.92;;;;;;;6.94;91.08;98001.12;1665072;84;27432;-68
2023/01/05 08:24:42;;;;;;;5.15;2.52;;;;;;;6.95;91.30;98001.36;1707486;84;25725;-68
2023/01/05 08:27:09;;;;;;;5.10;2.42;;;;;;;6.95;91.24;98006.27;1664990;84;25435;-68
2023/01/05 08:29:35;;;;;;;4.30;2.52;;;;;;;6.98;91.16;98001.56;1665260;84;25508;-68
2023/01/05 08:32:02;;;;;;;2.83;1.80;;;;;;;7.01;91.22;97996.87;1707173;84;25657;-68
2023/01/05 08:34:28;;;;;;;3.33;1.50;;;;;;;7.01;91.52;98004.22;1707864;82;27392;-68
2023/01/05 08:36:54;;;;;;;3.25;1.32;;;;;;;7.03;91.64;98007.45;1686984;82;25471;-68
2023/01/05 08:39:21;;;;;;;4.53;2.02;;;;;;;7.06;91.31;98011.48;1689543;82;25758;-68
2023/01/05 08:41:47;;;;;;;4.90;2.47;;;;;;;7.09;91.31;98007.59;1716961;82;25674;-68
2023/01/05 08:44:14;;;;;;;3.62;2.12;;;;;;;7.10;91.30;98009.20;1717013;82;25672;-68
2023/01/05 08:46:40;;;;;;;4.65;2.35;;;;;;;7.12;91.48;98007.53;1694323;82;27544;-68
2023/01/05 08:49:09;;;;;;;8.23;2.60;;;;;;;7.15;91.38;98011.00;1690659;82;25724;-68
2023/01/05 08:51:36;;;;;;;4.00;2.27;;;;;;;7.17;91.25;98013.42;1688065;82;25525;-68
2023/01/05 08:54:02;;;;;;;4.80;2.40;;;;;;;7.21;91.11;98012.50;1694636;82;25649;-68
2023/01/05 08:56:28;;;;;;;5.55;2.40;;;;;;;7.23;91.01;98013.56;1713270;82;25504;-68
2023/01/05 08:58:56;;;;;;;4.87;2.67;;;;;;;7.23;91.02;98011.63;1712944;82;28094;-68
2023/01/05 09:01:22;;;;;;;5.80;2.65;;;;;;;7.21;90.84;98019.31;1718430;82;25663;-68
2023/01/05 09:03:49;;;;;;;5.20;2.70;;;;;;;7.26;90.78;98018.40;1690656;82;25424;-68
2023/01/05 09:06:16;;;;;;;4.35;2.65;;;;;;;7.30;90.79;98026.20;1690310;82;25716;-68
2023/01/05 09:08:45;;;;;;;5.33;2.40;;;;;;;7.43;91.48;98023.20;1743209;81;25666;-68
2023/01/05 09:11:18;;;;;;;6.60;2.70;;;;;;;7.55;91.18;98017.73;1714430;82;27371;-68
2023/01/05 09:13:51;;;;;;;5.80;2.75;;;;;;;7.63;90.96;98023.25;1714380;82;25637;-68
2023/01/05 09:16:21;;;;;;;9.48;3.60;;;;;;;7.70;90.70;98024.19;1714961;82;25790;-68
2023/01/05 09:18:49;;;;;;;6.45;2.67;;;;;;;7.76;90.55;98022.13;1691584;82;25455;-69
2023/01/05 09:21:18;;;;;;;6.05;3.05;;;;;;;7.78;90.30;98020.69;1714371;82;25699;-68
2023/01/05 09:23:44;;;;;;;6.70;4.30;;;;;;;7.80;90.52;98020.38;1743568;82;27631;-68
2023/01/05 09:26:18;;;;;;;7.75;4.90;;;;;;;7.83;90.61;98025.80;1690222;82;25979;-68
2023/01/05 09:28:43;;;;;;;12.37;6.33;;;;;;;7.87;90.64;98021.32;1689951;82;25672;-68
2023/01/05 09:31:14;;;;;;;6.72;3.75;;;;;;;7.90;90.80;98027.52;1714365;82;25767;-68
2023/01/05 09:33:42;;;;;;;5.70;3.15;;;;;;;7.93;90.68;98015.98;1691320;82;25689;-68
2023/01/05 09:36:11;;;;;;;7.70;3.15;;;;;;;7.98;90.17;98019.95;1687102;82;27199;-68
2023/01/05 09:38:39;;;;;;;8.43;3.02;;;;;;;8.06;89.54;98028.50;1714738;82;25856;-68
2023/01/05 09:41:25;;;;;;;8.63;2.70;;;;;;;8.10;89.30;98036.30;1690361;82;25621;-68
2023/01/05 09:44:00;;;;;;;7.53;3.58;;;;;;;8.16;89.00;98033.13;1712852;82;26085;-68
2023/01/05 09:46:34;;;;;;;6.75;3.37;;;;;;;8.27;88.82;98024.67;1713819;82;25658;-69
2023/01/05 09:49:05;;;;;;;5.08;2.75;;;;;;;8.31;87.63;98013.36;1712825;82;28242;-69
2023/01/05 09:51:32;;;;;;;8.28;3.25;;;;;;;8.37;86.73;98017.56;1715238;82;25462;-68
2023/01/05 09:54:00;;;;;;;7.72;3.80;;;;;;;8.45;86.90;98022.81;1712645;82;25759;-68
2023/01/05 09:56:37;;;;;;;7.47;3.60;;;;;;;8.49;86.73;98018.91;1713437;82;25652;-68
2023/01/05 09:59:11;;;;;;;7.80;3.77;;;;;;;8.53;86.72;98025.34;1743407;81;25457;-68
2023/01/05 10:01:40;;;;;;;10.18;4.65;;;;;;;8.59;86.71;98020.02;1710459;82;28112;-68
2023/01/05 10:04:15;;;;;;;6.45;3.27;;;;;;;8.65;86.57;98024.20;1743392;81;25838;-68
2023/01/05 10:07:02;;;;;;;9.38;4.62;;;;;;;8.73;86.18;98023.18;1734134;82;25609;-68
2023/01/05 10:09:33;;;;;;;8.93;5.62;;;;;;;8.82;86.19;98036.30;1741902;81;25767;-67
2023/01/05 10:15:11;;;;;;;7.45;3.70;;;;;;;8.76;86.24;98028.02;1743420;82;25748;-69
2023/01/05 10:17:38;;;;;;;8.40;5.12;;;;;;;8.74;86.23;98017.95;1743592;81;25604;-68
2023/01/05 10:20:23;;;;;;;14.50;7.78;;;;;;;8.81;86.74;98023.75;1687983;82;25680;-69
2023/01/05 10:23:19;;;;;;;8.78;5.37;;;;;;;8.96;86.09;98021.16;1743421;81;25738;-68
2023/01/05 10:26:20;;;;;;;11.57;5.80;;;;;;;9.23;85.34;98017.88;1662309;86;25739;-69
2023/01/05 10:29:00;;;;;;;7.00;3.77;;;;;;;9.34;84.51;98015.64;1640555;86;27110;-69
2023/01/05 10:32:04;;;;;;;11.53;7.22;;;;;;;9.34;84.67;98013.45;1663211;86;25873;-69
2023/01/05 10:35:06;;;;;;;5.47;3.27;;;;;;;9.37;84.04;98011.45;1663132;86;25629;-69
2023/01/05 10:37:59;;;;;;;3.12;2.37;;;;;;;9.48;83.53;98014.11;1638813;86;26398;-69
2023/01/05 10:40:40;;;;;;;6.25;3.12;;;;;;;9.60;82.97;98003.88;1662062;86;25675;-69
2023/01/05 10:43:46;;;;;;;6.10;3.67;;;;;;;9.73;82.45;98004.81;1640286;86;27380;-69
2023/01/05 10:46:15;;;;;;;7.25;3.95;;;;;;;9.84;83.01;97999.03;1639194;86;26276;-69
2023/01/05 10:48:42;;;;;;;6.62;3.80;;;;;;;9.81;81.96;97997.72;1618905;86;25697;-68
2023/01/05 10:51:09;;;;;;;10.75;5.95;;;;;;;9.78;81.71;98001.11;1640202;86;25671;-68
2023/01/05 10:53:40;;;;;;;11.18;5.60;;;;;;;9.75;82.21;97992.18;1640186;86;25540;-69
2023/01/05 10:56:12;;;;;;;14.05;7.12;;;;;;;9.74;82.24;97991.39;1663144;86;27433;-68
2023/01/05 10:58:45;;;;;;;9.53;5.80;;;;;;;9.72;81.86;97989.54;1640319;86;25735;-68
2023/01/05 11:01:29;;;;;;;7.60;4.15;;;;;;;9.71;82.26;97990.67;1591651;86;25654;-68
2023/01/05 11:04:07;;;;;;;6.58;3.87;;;;;;;9.70;81.91;97985.53;1686147;82;26407;-68
2023/01/05 11:06:36;;;;;;;7.83;3.98;;;;;;;9.69;81.55;97983.90;1712754;82;25680;-68
2023/01/05 11:09:13;;;;;;;7.72;4.22;;;;;;;9.64;81.08;97978.03;1712910;82;27482;-68
2023/01/05 11:11:40;;;;;;;8.15;3.33;;;;;;;9.68;81.44;97980.38;1712994;82;25680;-68
2023/01/05 11:14:14;;;;;;;9.18;4.80;;;;;;;9.63;80.59;97982.72;1687486;82;25673;-68
2023/01/05 11:16:47;;;;;;;7.25;4.35;;;;;;;9.63;81.60;97980.54;1712922;82;25650;-68
2023/01/05 11:19:17;;;;;;;14.43;6.37;;;;;;;9.66;81.20;97988.09;1743492;81;25594;-68
2023/01/05 11:21:45;;;;;;;11.70;5.15;;;;;;;9.72;81.38;97990.09;1738741;81;27444;-68
2023/01/05 11:24:29;;;;;;;10.38;6.10;;;;;;;9.81;81.60;97995.57;1690434;82;25757;-67
2023/01/05 11:27:22;;;;;;;12.23;5.20;;;;;;;9.94;81.04;98000.59;1714141;82;25526;-67
2023/01/05 11:30:23;;;;;;;9.95;4.67;;;;;;;10.08;80.97;98001.22;1743686;81;26471;-67
2023/01/05 11:32:48;;;;;;;10.55;5.67;;;;;;;10.24;79.82;97988.34;1742881;82;25749;-68
2023/01/05 11:35:26;;;;;;;9.48;4.60;;;;;;;10.39;80.12;97992.50;1712920;82;27508;-68
2023/01/05 11:37:53;;;;;;;7.60;4.03;;;;;;;10.46;79.71;97991.44;1709389;82;25459;-68
2023/01/05 11:40:23;;;;;;;13.32;5.80;;;;;;;10.61;78.08;98007.06;1712828;82;25447;-68
2023/01/05 11:42:49;;;;;;;16.50;7.00;;;;;;;10.77;77.67;98004.58;1738694;81;25692;-68
2023/01/05 11:45:27;;;;;;;12.82;6.40;;;;;;;11.07;77.63;97999.62;1717037;82;25617;-68
2023/01/05 11:48:03;;;;;;;16.37;7.67;;;;;;;11.60;78.11;97996.48;1712321;82;27334;-68
2023/01/05 11:50:44;;;;;;;14.58;6.92;;;;;;;12.12;76.93;97992.41;1686156;82;26417;-68
2023/01/05 11:53:27;;;;;;;9.00;4.42;;;;;;;12.35;74.41;98000.22;1742810;82;25916;-68
2023/01/05 11:56:07;;;;;;;12.37;6.40;;;;;;;12.24;73.95;97991.64;1712794;82;25681;-68
2023/01/05 11:58:43;;;;;;;12.70;6.30;;;;;;;12.17;74.12;97998.25;1713047;82;25753;-68
2023/01/05 12:01:50;;;;;;;5.58;2.33;;;;;;;11.95;72.70;98004.94;1706782;82;27434;-68
2023/01/05 12:04:44;;;;;;;2.33;1.72;;;;;;;11.70;70.72;98010.34;1712670;82;26178;-66
2023/01/05 12:07:22;;;;;;;5.05;3.37;;;;;;;11.49;71.11;97996.87;1713933;82;25671;-66
2023/01/05 12:09:56;;;;;;;2.30;1.40;;;;;;;11.38;70.03;97992.94;1713291;82;25760;-66
2023/01/05 12:12:46;;;;;;;2.17;1.27;;;;;;;11.24;68.73;97998.14;1712817;82;25736;-66
2023/01/05 12:15:39;;;;;;;5.53;2.10;;;;;;;11.13;68.97;97994.17;1712355;82;28113;-67
2023/01/05 12:18:29;;;;;;;4.20;1.67;;;;;;;11.04;69.58;97999.17;1743074;81;25591;-66
2023/01/05 12:21:13;;;;;;;2.92;1.50;;;;;;;10.99;67.69;97994.42;1743756;81;25606;-66
2023/01/05 12:24:06;;;;;;;6.30;1.50;;;;;;;10.87;67.32;97991.86;1743244;81;25824;-67
2023/01/05 12:27:00;;;;;;;3.75;1.62;;;;;;;10.76;66.78;98002.95;1713615;82;25633;-66
2023/01/05 12:30:08;;;;;;;4.15;1.80;;;;;;;10.71;69.51;97993.57;1713738;82;28569;-66
2023/01/05 12:32:52;;;;;;;4.03;1.80;;;;;;;10.66;70.47;98008.27;1713225;82;25776;-67
2023/01/05 12:35:43;;;;;;;7.45;3.40;;;;;;;10.58;69.51;97998.95;1743849;81;25128;-67
2023/01/05 12:38:13;;;;;;;;;;;;;;;10.59;70.55;97995.66;1716254;82;25706;-67